createdAt,value
2018-04-09T00:07:33.559Z,35.47
2018-04-09T00:08:11.201Z,34.97
2018-04-09T00:08:46.361Z,36.08
2018-04-09T00:09:20.260Z,36.17
2018-04-09T00:09:54.138Z,36.80
2018-04-09T00:10:28.018Z,34.22
2018-04-09T00:11:01.917Z,36.08
2018-04-09T00:11:35.785Z,39.22
2018-04-09T00:12:09.689Z,33.85
2018-04-09T00:12:43.575Z,34.58
2018-04-09T00:13:17.743Z,34.20
2018-04-09T00:13:51.637Z,38.45
2018-04-09T00:14:25.730Z,32.08
2018-04-09T00:14:59.742Z,36.47
2018-04-09T00:15:48.099Z,37.47
2018-04-09T00:16:21.985Z,31.48
2018-04-09T00:16:55.858Z,35.03
2018-04-09T00:17:29.755Z,31.92
2018-04-09T00:18:03.643Z,32.13
2018-04-09T00:18:37.505Z,31.55
2018-04-09T00:19:11.377Z,34.08
2018-04-09T00:19:45.251Z,30.88
2018-04-09T00:20:19.146Z,31.98
2018-04-09T00:20:53.009Z,34.90
2018-04-09T00:21:28.196Z,34.78
2018-04-09T00:22:03.949Z,33.55
2018-04-09T00:22:38.647Z,35.17
2018-04-09T00:23:14.034Z,33.08
2018-04-09T00:23:49.456Z,34.80
2018-04-09T00:24:25.786Z,36.45
2018-04-09T00:25:08.698Z,32.80
2018-04-09T00:25:44.004Z,28.85
2018-04-09T00:26:17.870Z,30.55
2018-04-09T00:26:52.441Z,34.88
2018-04-09T00:27:26.320Z,36.97
2018-04-09T00:28:00.537Z,32.70
2018-04-09T00:28:34.431Z,33.67
2018-04-09T00:29:08.411Z,33.00
2018-04-09T00:29:42.795Z,32.88
2018-04-09T00:30:16.678Z,32.95
2018-04-09T00:30:51.388Z,31.77
2018-04-09T00:31:25.279Z,34.85
2018-04-09T00:32:00.147Z,32.72
2018-04-09T00:32:34.956Z,36.33
2018-04-09T00:33:08.856Z,34.70
2018-04-09T00:33:43.668Z,36.38
2018-04-09T00:34:18.389Z,28.90
2018-04-09T00:34:52.384Z,34.50
2018-04-09T00:35:27.166Z,35.65
2018-04-09T00:36:01.056Z,32.35
2018-04-09T00:36:34.923Z,36.03
2018-04-09T00:37:08.782Z,32.25
2018-04-09T00:37:42.695Z,32.53
2018-04-09T00:38:16.572Z,33.72
2018-04-09T00:38:51.537Z,34.33
2018-04-09T00:39:26.262Z,34.05
2018-04-09T00:40:00.134Z,35.75
2018-04-09T00:40:33.992Z,36.15
2018-04-09T00:41:07.869Z,31.25
2018-04-09T00:41:41.733Z,36.53
2018-04-09T00:42:15.635Z,33.10
2018-04-09T00:42:49.513Z,35.47
2018-04-09T00:43:23.503Z,37.25
2018-04-09T00:43:57.418Z,34.78
2018-04-09T00:44:31.382Z,36.95
2018-04-09T00:45:05.288Z,38.28
2018-04-09T00:45:39.182Z,37.08
2018-04-09T00:46:13.084Z,34.53
2018-04-09T00:46:46.945Z,38.58
2018-04-09T00:47:20.828Z,31.73
2018-04-09T00:47:54.960Z,33.92
2018-04-09T00:48:29.082Z,35.60
2018-04-09T00:49:02.968Z,33.55
2018-04-09T00:49:36.833Z,32.10
2018-04-09T00:50:10.686Z,35.08
2018-04-09T00:50:44.568Z,32.88
2018-04-09T00:51:18.471Z,35.00
2018-04-09T00:51:52.344Z,33.35
2018-04-09T00:52:26.315Z,33.15
2018-04-09T00:53:00.224Z,33.05
2018-04-09T00:53:40.021Z,32.13
2018-04-09T00:54:13.911Z,33.83
2018-04-09T00:54:47.790Z,34.55
2018-04-09T00:55:21.750Z,31.98
2018-04-09T00:55:55.611Z,43.10
2018-04-09T00:56:29.496Z,38.40
2018-04-09T00:57:03.372Z,36.72
2018-04-09T00:57:37.231Z,35.15
2018-04-09T00:58:11.089Z,33.60
2018-04-09T00:58:44.946Z,34.85
2018-04-09T00:59:18.821Z,42.05
2018-04-09T00:59:52.670Z,35.50
2018-04-09T01:00:26.549Z,38.35
2018-04-09T01:01:00.410Z,38.17
2018-04-09T01:01:34.265Z,34.38
2018-04-09T01:02:08.129Z,37.35
2018-04-09T01:02:42.153Z,40.30
2018-04-09T01:03:16.038Z,37.55
2018-04-09T01:03:49.911Z,39.05
2018-04-09T01:04:23.796Z,38.65
2018-04-09T01:04:57.645Z,40.58
2018-04-09T01:05:31.542Z,37.75
2018-04-09T01:06:05.429Z,35.95
2018-04-09T01:06:39.295Z,38.55
2018-04-09T01:07:13.416Z,42.42
2018-04-09T01:07:47.276Z,38.03
2018-04-09T01:08:21.152Z,38.67
2018-04-09T01:08:55.031Z,38.20
2018-04-09T01:09:28.916Z,38.42
2018-04-09T01:10:02.778Z,42.67
2018-04-09T01:10:36.681Z,38.72
2018-04-09T01:11:10.539Z,40.80
2018-04-09T01:11:44.406Z,48.75
2018-04-09T01:12:18.266Z,39.85
2018-04-09T01:12:52.130Z,39.80
2018-04-09T01:13:26.065Z,37.75
2018-04-09T01:14:00.060Z,35.45
2018-04-09T01:14:33.977Z,39.13
2018-04-09T01:15:07.833Z,42.08
2018-04-09T01:15:41.713Z,38.65
2018-04-09T01:16:15.590Z,37.83
2018-04-09T01:16:49.459Z,38.55
2018-04-09T01:17:25.445Z,36.85
2018-04-09T01:17:59.371Z,41.92
2018-04-09T01:18:33.405Z,34.47
2018-04-09T01:19:07.278Z,39.92
2018-04-09T01:19:41.148Z,37.85
2018-04-09T01:20:15.013Z,40.50
2018-04-09T01:20:48.872Z,37.67
2018-04-09T01:21:22.753Z,40.90
2018-04-09T01:21:56.613Z,39.97
2018-04-09T01:22:30.475Z,36.67
2018-04-09T01:23:04.657Z,37.88
2018-04-09T01:23:38.539Z,39.10
2018-04-09T01:24:12.389Z,37.78
2018-04-09T01:24:46.279Z,42.80
2018-04-09T01:25:20.419Z,38.63
2018-04-09T01:25:54.268Z,37.35
2018-04-09T01:26:28.131Z,37.15
2018-04-09T01:27:01.995Z,35.35
2018-04-09T01:27:36.010Z,37.92
2018-04-09T01:28:09.881Z,36.35
2018-04-09T01:28:43.761Z,38.67
2018-04-09T01:29:17.621Z,36.95
2018-04-09T01:29:51.586Z,36.47
2018-04-09T01:30:25.684Z,34.10
2018-04-09T01:30:59.594Z,34.20
2018-04-09T01:31:33.482Z,37.20
2018-04-09T01:32:07.481Z,31.45
2018-04-09T01:32:41.404Z,32.50
2018-04-09T01:33:15.305Z,36.92
2018-04-09T01:33:49.362Z,34.63
2018-04-09T01:34:23.223Z,35.50
2018-04-09T01:34:57.107Z,32.33
2018-04-09T01:35:30.972Z,32.97
2018-04-09T01:36:04.844Z,32.90
2018-04-09T01:36:38.740Z,31.90
2018-04-09T01:37:12.591Z,32.08
2018-04-09T01:37:46.453Z,40.03
2018-04-09T01:38:20.310Z,33.58
2018-04-09T01:38:54.175Z,33.65
2018-04-09T01:39:28.035Z,37.38
2018-04-09T01:40:01.946Z,31.80
2018-04-09T01:40:35.828Z,31.70
2018-04-09T01:41:09.805Z,35.78
2018-04-09T01:41:43.684Z,38.90
2018-04-09T01:42:17.735Z,35.67
2018-04-09T01:42:51.779Z,34.28
2018-04-09T01:43:25.836Z,35.05
2018-04-09T01:43:59.725Z,32.60
2018-04-09T01:44:35.375Z,34.58
2018-04-09T01:45:09.244Z,31.95
2018-04-09T01:45:43.100Z,35.70
2018-04-09T01:46:19.825Z,32.75
2018-04-09T01:46:53.795Z,37.58
2018-04-09T01:47:27.718Z,33.65
2018-04-09T01:48:01.750Z,36.75
2018-04-09T01:48:35.610Z,32.40
2018-04-09T01:49:09.473Z,33.05
2018-04-09T01:49:43.370Z,37.08
2018-04-09T01:50:17.261Z,35.95
2018-04-09T01:50:51.136Z,33.55
2018-04-09T01:51:25.011Z,33.42
2018-04-09T01:51:58.869Z,34.05
2018-04-09T01:52:32.737Z,33.80
2018-04-09T01:53:06.594Z,37.90
2018-04-09T01:53:40.617Z,32.10
2018-04-09T01:54:14.519Z,32.95
2018-04-09T01:54:48.395Z,33.38
2018-04-09T01:55:22.283Z,33.45
2018-04-09T01:55:57.014Z,33.25
2018-04-09T01:56:31.186Z,34.72
2018-04-09T01:57:05.169Z,32.75
2018-04-09T01:57:39.054Z,32.03
2018-04-09T01:58:12.929Z,36.42
2018-04-09T01:58:47.003Z,34.85
2018-04-09T01:59:20.881Z,35.88
2018-04-09T01:59:55.120Z,32.17
2018-04-09T02:00:29.032Z,32.53
2018-04-09T02:01:02.907Z,33.75
2018-04-09T02:01:36.774Z,34.50
2018-04-09T02:02:10.647Z,35.10
2018-04-09T02:02:44.510Z,33.20
2018-04-09T02:03:18.412Z,37.50
2018-04-09T02:03:52.280Z,31.17
2018-04-09T02:04:26.179Z,33.45
2018-04-09T02:05:00.046Z,34.28
2018-04-09T02:05:33.934Z,34.50
2018-04-09T02:06:07.801Z,31.52
2018-04-09T02:06:42.666Z,33.53
2018-04-09T02:07:16.536Z,33.38
2018-04-09T02:07:50.453Z,33.35
2018-04-09T02:08:24.321Z,32.53
2018-04-09T02:08:58.192Z,32.10
2018-04-09T02:09:32.064Z,34.33
2018-04-09T02:10:05.969Z,36.13
2018-04-09T02:10:39.872Z,32.17
2018-04-09T02:11:13.743Z,30.33
2018-04-09T02:11:47.639Z,33.90
2018-04-09T02:12:21.513Z,32.28
2018-04-09T02:12:55.374Z,31.30
2018-04-09T02:13:29.240Z,33.05
2018-04-09T02:14:03.404Z,31.33
2018-04-09T02:14:37.269Z,35.45
2018-04-09T02:15:11.122Z,36.15
2018-04-09T02:15:44.997Z,32.63
2018-04-09T02:16:18.862Z,33.13
2018-04-09T02:16:53.133Z,35.65
2018-04-09T02:17:27.010Z,32.88
2018-04-09T02:18:00.871Z,34.00
2018-04-09T02:18:34.894Z,34.10
2018-04-09T02:19:09.693Z,42.25
2018-04-09T02:19:43.798Z,35.67
2018-04-09T02:20:19.319Z,38.47
2018-04-09T02:20:53.330Z,37.00
2018-04-09T02:21:27.243Z,42.75
2018-04-09T02:22:01.096Z,36.00
2018-04-09T02:22:35.329Z,33.15
2018-04-09T02:23:09.252Z,40.00
2018-04-09T02:23:43.150Z,36.00
2018-04-09T02:24:17.035Z,37.83
2018-04-09T02:24:50.913Z,40.33
2018-04-09T02:25:24.758Z,37.10
2018-04-09T02:25:58.641Z,38.75
2018-04-09T02:26:32.506Z,37.25
2018-04-09T02:27:06.393Z,42.40
2018-04-09T02:27:40.696Z,36.40
2018-04-09T02:28:14.561Z,34.58
2018-04-09T02:28:48.648Z,35.22
2018-04-09T02:29:22.512Z,37.70
2018-04-09T02:29:56.377Z,38.28
2018-04-09T02:30:30.245Z,37.17
2018-04-09T02:31:04.113Z,33.80
2018-04-09T02:31:38.052Z,34.28
2018-04-09T02:32:11.909Z,35.05
2018-04-09T02:32:45.767Z,30.50
2018-04-09T02:33:19.647Z,32.88
2018-04-09T02:33:53.508Z,30.48
2018-04-09T02:34:27.629Z,31.75
2018-04-09T02:35:01.691Z,32.35
2018-04-09T02:35:36.776Z,31.27
2018-04-09T02:36:11.156Z,31.08
2018-04-09T02:36:45.022Z,32.60
2018-04-09T02:37:18.902Z,32.58
2018-04-09T02:37:52.843Z,29.80
2018-04-09T02:38:26.709Z,32.25
2018-04-09T02:39:00.570Z,30.12
2018-04-09T02:39:34.481Z,29.40
2018-04-09T02:40:08.346Z,30.17
2018-04-09T02:40:42.245Z,28.30
2018-04-09T02:41:16.126Z,27.30
2018-04-09T02:41:49.985Z,29.65
2018-04-09T02:42:23.868Z,27.65
2018-04-09T02:42:57.811Z,30.40
2018-04-09T02:43:31.677Z,26.87
2018-04-09T02:44:05.558Z,29.33
2018-04-09T02:44:39.699Z,26.23
2018-04-09T02:45:13.680Z,28.02
2018-04-09T02:45:47.719Z,25.17
2018-04-09T02:46:21.683Z,28.15
2018-04-09T02:46:55.741Z,28.80
2018-04-09T02:47:29.596Z,27.40
2018-04-09T02:48:03.891Z,30.85
2018-04-09T02:48:38.591Z,26.80
2018-04-09T02:49:12.463Z,29.35
2018-04-09T02:49:46.323Z,29.90
2018-04-09T02:50:20.196Z,29.02
2018-04-09T02:50:54.277Z,27.48
2018-04-09T02:51:28.189Z,28.00
2018-04-09T02:52:02.073Z,28.95
2018-04-09T02:52:35.994Z,30.75
2018-04-09T02:53:09.866Z,29.20
2018-04-09T02:53:43.759Z,26.60
2018-04-09T02:54:17.618Z,31.37
2018-04-09T02:54:51.491Z,28.40
2018-04-09T02:55:25.380Z,30.25
2018-04-09T02:55:59.259Z,26.77
2018-04-09T02:56:33.233Z,27.50
2018-04-09T02:57:07.227Z,29.50
2018-04-09T02:57:41.110Z,29.73
2018-04-09T02:58:14.993Z,31.40
2018-04-09T02:58:48.858Z,31.10
2018-04-09T02:59:22.725Z,30.52
2018-04-09T02:59:56.604Z,29.27
2018-04-09T03:00:30.476Z,31.12
2018-04-09T03:01:04.354Z,29.92
2018-04-09T03:01:38.257Z,26.37
2018-04-09T03:02:12.290Z,33.55
2018-04-09T03:02:46.160Z,32.60
2018-04-09T03:03:20.290Z,29.60
2018-04-09T03:03:54.187Z,29.73
2018-04-09T03:04:28.067Z,30.67
2018-04-09T03:05:01.932Z,27.58
2018-04-09T03:05:35.799Z,28.08
2018-04-09T03:06:09.659Z,27.65
2018-04-09T03:06:43.650Z,26.83
2018-04-09T03:07:17.673Z,22.98
2018-04-09T03:07:51.551Z,27.50
2018-04-09T03:08:25.444Z,24.35
2018-04-09T03:08:59.314Z,26.52
2018-04-09T03:09:33.186Z,25.33
2018-04-09T03:10:07.047Z,25.73
2018-04-09T03:10:40.896Z,25.75
2018-04-09T03:11:14.759Z,24.52
2018-04-09T03:11:48.816Z,26.50
2018-04-09T03:12:22.679Z,24.52
2018-04-09T03:12:56.563Z,23.35
2018-04-09T03:13:30.705Z,24.48
2018-04-09T03:14:04.569Z,25.05
2018-04-09T03:14:38.437Z,28.90
2018-04-09T03:15:12.301Z,23.60
2018-04-09T03:15:46.157Z,25.15
2018-04-09T03:16:20.034Z,25.90
2018-04-09T03:16:53.908Z,27.27
2018-04-09T03:17:27.787Z,25.45
2018-04-09T03:18:01.662Z,24.02
2018-04-09T03:18:35.517Z,30.27
2018-04-09T03:19:09.384Z,28.20
2018-04-09T03:19:43.473Z,28.87
2018-04-09T03:20:17.756Z,28.17
2018-04-09T03:20:51.753Z,27.60
2018-04-09T03:21:25.649Z,27.45
2018-04-09T03:21:59.535Z,28.30
2018-04-09T03:22:33.445Z,29.40
2018-04-09T03:23:07.305Z,25.60
2018-04-09T03:23:41.166Z,26.92
2018-04-09T03:24:15.022Z,26.15
2018-04-09T03:24:48.926Z,26.02
2018-04-09T03:25:22.795Z,26.95
2018-04-09T03:25:56.658Z,27.45
2018-04-09T03:26:30.532Z,28.17
2018-04-09T03:27:04.419Z,29.98
2018-04-09T03:27:38.301Z,29.02
2018-04-09T03:28:12.302Z,28.48
2018-04-09T03:28:46.182Z,30.70
2018-04-09T03:29:20.042Z,26.12
2018-04-09T03:29:54.182Z,26.10
2018-04-09T03:30:28.043Z,26.48
2018-04-09T03:31:01.935Z,26.98
2018-04-09T03:31:35.813Z,29.37
2018-04-09T03:32:09.684Z,27.13
2018-04-09T03:32:43.548Z,26.33
2018-04-09T03:33:17.411Z,27.23
2018-04-09T03:33:51.288Z,27.80
2018-04-09T03:34:25.458Z,25.67
2018-04-09T03:34:59.749Z,28.27
2018-04-09T03:35:33.616Z,27.62
2018-04-09T03:36:07.477Z,27.37
2018-04-09T03:36:41.358Z,26.08
2018-04-09T03:37:15.221Z,26.70
2018-04-09T03:37:49.131Z,26.20
2018-04-09T03:38:23.138Z,29.70
2018-04-09T03:38:56.992Z,26.58
2018-04-09T03:39:30.939Z,27.15
2018-04-09T03:40:04.806Z,25.80
2018-04-09T03:40:38.692Z,28.70
2018-04-09T03:41:12.615Z,27.58
2018-04-09T03:41:46.478Z,30.33
2018-04-09T03:42:20.352Z,29.77
2018-04-09T03:42:54.292Z,27.20
2018-04-09T03:43:28.150Z,31.85
2018-04-09T03:44:02.223Z,27.85
2018-04-09T03:44:36.090Z,24.05
2018-04-09T03:45:09.983Z,26.23
2018-04-09T03:45:44.080Z,27.58
2018-04-09T03:46:17.952Z,28.30
2018-04-09T03:46:51.832Z,29.00
2018-04-09T03:47:25.769Z,27.13
2018-04-09T03:47:59.666Z,35.63
2018-04-09T03:48:33.539Z,27.42
2018-04-09T03:49:07.403Z,28.62
2018-04-09T03:49:41.344Z,27.15
2018-04-09T03:50:15.213Z,27.52
2018-04-09T03:50:49.083Z,25.25
2018-04-09T03:51:23.126Z,27.05
2018-04-09T03:51:56.995Z,30.30
2018-04-09T03:52:30.867Z,33.65
2018-04-09T03:53:04.809Z,32.38
2018-04-09T03:53:38.818Z,32.58
2018-04-09T03:54:12.676Z,30.20
2018-04-09T03:54:46.547Z,27.25
2018-04-09T03:55:20.400Z,29.37
2018-04-09T03:55:54.281Z,30.10
2018-04-09T03:56:28.154Z,32.28
2018-04-09T03:57:02.205Z,31.87
2018-04-09T03:57:36.078Z,27.75
2018-04-09T03:58:10.175Z,31.15
2018-04-09T03:58:44.042Z,30.25
2018-04-09T03:59:18.013Z,30.73
2018-04-09T03:59:51.880Z,27.60
2018-04-09T04:00:25.749Z,30.48
2018-04-09T04:00:59.704Z,35.30
2018-04-09T04:01:33.763Z,37.05
2018-04-09T04:02:07.644Z,29.65
2018-04-09T04:02:41.531Z,33.28
2018-04-09T04:03:15.542Z,33.28
2018-04-09T04:03:49.490Z,28.83
2018-04-09T04:04:23.357Z,28.80
2018-04-09T04:04:57.220Z,29.92
2018-04-09T04:05:31.237Z,28.33
2018-04-09T04:06:05.105Z,31.98
2018-04-09T04:06:39.125Z,27.95
2018-04-09T04:07:12.995Z,28.95
2018-04-09T04:07:47.030Z,33.15
2018-04-09T04:08:20.903Z,30.58
2018-04-09T04:08:54.900Z,30.70
2018-04-09T04:09:28.752Z,30.88
2018-04-09T04:10:02.653Z,29.48
2018-04-09T04:10:36.515Z,29.50
2018-04-09T04:11:10.589Z,32.00
2018-04-09T04:11:44.456Z,29.60
2018-04-09T04:12:18.337Z,31.15
2018-04-09T04:12:52.213Z,32.88
2018-04-09T04:13:26.179Z,30.67
2018-04-09T04:14:00.044Z,33.75
2018-04-09T04:14:34.061Z,32.60
2018-04-09T04:15:07.916Z,29.95
2018-04-09T04:15:47.681Z,32.30
2018-04-09T04:16:27.407Z,29.60
2018-04-09T04:17:07.113Z,30.55
2018-04-09T04:17:46.754Z,28.62
2018-04-09T04:18:26.449Z,29.73
2018-04-09T04:19:06.275Z,31.95
2018-04-09T04:19:46.105Z,31.92
2018-04-09T04:20:25.749Z,33.38
2018-04-09T04:21:05.402Z,30.10
2018-04-09T04:21:45.044Z,33.85
2018-04-09T04:22:18.973Z,38.63
2018-04-09T04:22:53.070Z,33.00
2018-04-09T04:23:27.128Z,38.08
2018-04-09T04:24:01.267Z,41.22
2018-04-09T04:24:35.150Z,34.05
2018-04-09T04:25:09.012Z,36.22
2018-04-09T04:25:42.902Z,33.20
2018-04-09T04:26:16.758Z,33.80
2018-04-09T04:26:50.639Z,33.08
2018-04-09T04:27:25.422Z,34.25
2018-04-09T04:27:59.293Z,35.25
2018-04-09T04:28:33.180Z,33.75
2018-04-09T04:29:07.059Z,32.78
2018-04-09T04:29:40.938Z,33.80
2018-04-09T04:30:14.814Z,33.17
2018-04-09T04:30:48.698Z,31.65
2018-04-09T04:31:22.690Z,29.95
2018-04-09T04:31:56.654Z,30.00
2018-04-09T04:32:30.529Z,28.33
2018-04-09T04:33:04.434Z,33.80
2018-04-09T04:33:38.347Z,31.48
2018-04-09T04:34:12.214Z,34.58
2018-04-09T04:34:46.084Z,29.55
2018-04-09T04:35:19.948Z,32.13
2018-04-09T04:35:54.115Z,33.45
2018-04-09T04:36:27.997Z,29.90
2018-04-09T04:37:01.869Z,34.53
2018-04-09T04:37:36.152Z,32.38
2018-04-09T04:38:10.021Z,29.05
2018-04-09T04:38:44.301Z,31.25
2018-04-09T04:39:18.274Z,34.75
2018-04-09T04:39:52.172Z,33.58
2018-04-09T04:40:26.263Z,33.58
2018-04-09T04:41:00.207Z,37.50
2018-04-09T04:41:34.065Z,33.58
2018-04-09T04:42:07.927Z,32.72
2018-04-09T04:42:41.965Z,30.73
2018-04-09T04:43:15.848Z,33.55
2018-04-09T04:43:49.864Z,35.33
2018-04-09T04:44:23.766Z,31.52
2018-04-09T04:44:57.650Z,30.95
2018-04-09T04:45:31.508Z,30.05
2018-04-09T04:46:05.370Z,31.90
2018-04-09T04:46:39.245Z,30.02
2018-04-09T04:47:13.106Z,32.35
2018-04-09T04:47:46.981Z,31.15
2018-04-09T04:48:20.845Z,28.80
2018-04-09T04:48:54.919Z,33.47
2018-04-09T04:49:28.808Z,26.95
2018-04-09T04:50:02.660Z,30.48
2018-04-09T04:50:36.600Z,28.67
2018-04-09T04:51:10.466Z,28.83
2018-04-09T04:51:44.396Z,26.62
2018-04-09T04:52:18.269Z,26.23
2018-04-09T04:52:52.190Z,29.50
2018-04-09T04:53:26.077Z,25.77
2018-04-09T04:54:00.005Z,33.13
2018-04-09T04:54:33.892Z,25.55
2018-04-09T04:55:07.762Z,27.85
2018-04-09T04:55:41.708Z,29.05
2018-04-09T04:56:15.542Z,28.45
2018-04-09T04:56:49.398Z,27.98
2018-04-09T04:57:23.275Z,29.00
2018-04-09T04:57:57.172Z,28.17
2018-04-09T04:58:31.064Z,27.48
2018-04-09T04:59:04.960Z,25.02
2018-04-09T04:59:38.819Z,26.23
2018-04-09T05:00:12.792Z,32.72
2018-04-09T05:00:46.655Z,29.63
2018-04-09T05:01:20.815Z,28.85
2018-04-09T05:01:54.674Z,33.83
2018-04-09T05:02:28.843Z,32.53
2018-04-09T05:03:02.734Z,35.70
2018-04-09T05:03:36.612Z,32.58
2018-04-09T05:04:10.506Z,40.97
2018-04-09T05:04:44.380Z,32.58
2018-04-09T05:05:18.253Z,38.30
2018-04-09T05:05:52.119Z,33.15
2018-04-09T05:06:26.179Z,31.42
2018-04-09T05:07:00.190Z,37.17
2018-04-09T05:07:34.053Z,31.23
2018-04-09T05:08:08.176Z,38.13
2018-04-09T05:08:42.133Z,36.55
2018-04-09T05:09:16.016Z,34.85
2018-04-09T05:09:49.884Z,31.33
2018-04-09T05:10:23.765Z,29.92
2018-04-09T05:10:57.668Z,35.65
2018-04-09T05:11:31.522Z,31.55
2018-04-09T05:12:05.645Z,33.50
2018-04-09T05:12:39.519Z,34.83
2018-04-09T05:13:13.538Z,38.53
2018-04-09T05:13:47.551Z,35.88
2018-04-09T05:14:21.531Z,41.45
2018-04-09T05:14:55.442Z,34.58
2018-04-09T05:15:29.319Z,34.17
2018-04-09T05:16:03.215Z,40.75
2018-04-09T05:16:37.070Z,32.25
2018-04-09T05:17:10.950Z,34.90
2018-04-09T05:17:44.916Z,33.72
2018-04-09T05:18:18.777Z,38.45
2018-04-09T05:18:52.670Z,35.45
2018-04-09T05:19:27.012Z,32.92
2018-04-09T05:20:00.918Z,35.95
2018-04-09T05:20:34.808Z,38.20
2018-04-09T05:21:09.098Z,38.80
2018-04-09T05:21:43.854Z,31.85
2018-04-09T05:22:17.749Z,44.42
2018-04-09T05:22:51.613Z,36.55
2018-04-09T05:23:25.500Z,40.40
2018-04-09T05:23:59.389Z,37.05
2018-04-09T05:24:33.278Z,34.80
2018-04-09T05:25:07.968Z,30.50
2018-04-09T05:25:41.842Z,38.33
2018-04-09T05:26:15.997Z,40.95
2018-04-09T05:26:49.857Z,35.97
2018-04-09T05:27:23.739Z,31.75
2018-04-09T05:27:57.614Z,33.42
2018-04-09T05:28:31.514Z,33.45
2018-04-09T05:29:05.435Z,29.33
2018-04-09T05:29:39.484Z,42.20
2018-04-09T05:30:13.364Z,33.30
2018-04-09T05:30:47.300Z,29.60
2018-04-09T05:31:21.206Z,28.00
2018-04-09T05:31:55.079Z,31.40
2018-04-09T05:32:28.971Z,28.62
2018-04-09T05:33:02.834Z,28.60
2018-04-09T05:33:36.692Z,31.42
2018-04-09T05:34:10.561Z,31.00
2018-04-09T05:34:44.441Z,32.58
2018-04-09T05:35:18.660Z,36.55
2018-04-09T05:35:52.587Z,33.22
2018-04-09T05:36:26.632Z,30.10
2018-04-09T05:37:00.827Z,33.47
2018-04-09T05:37:34.925Z,32.55
2018-04-09T05:38:08.809Z,29.90
2018-04-09T05:38:42.705Z,31.05
2018-04-09T05:39:16.565Z,33.95
2018-04-09T05:39:50.482Z,30.48
2018-04-09T05:40:24.339Z,30.65
2018-04-09T05:40:58.297Z,35.42
2018-04-09T05:41:32.175Z,31.90
2018-04-09T05:42:06.122Z,32.83
2018-04-09T05:42:39.989Z,35.85
2018-04-09T05:43:13.867Z,31.05
2018-04-09T05:43:47.758Z,34.50
2018-04-09T05:44:22.440Z,32.55
2018-04-09T05:44:56.337Z,32.20
2018-04-09T05:45:30.236Z,29.30
2018-04-09T05:46:04.111Z,32.83
2018-04-09T05:46:38.314Z,31.00
2018-04-09T05:47:12.185Z,30.50
2018-04-09T05:47:46.180Z,33.00
2018-04-09T05:48:20.063Z,30.05
2018-04-09T05:48:53.922Z,36.83
2018-04-09T05:49:27.811Z,33.75
2018-04-09T05:50:01.704Z,36.55
2018-04-09T05:50:35.753Z,39.00
2018-04-09T05:51:09.630Z,36.15
2018-04-09T05:51:43.521Z,38.42
2018-04-09T05:52:17.394Z,34.80
2018-04-09T05:52:51.258Z,37.85
2018-04-09T05:53:25.130Z,41.97
2018-04-09T05:53:59.148Z,49.08
2018-04-09T05:54:33.001Z,32.40
2018-04-09T05:55:07.024Z,38.63
2018-04-09T05:55:40.894Z,39.83
2018-04-09T05:56:14.779Z,38.08
2018-04-09T05:56:48.637Z,34.40
2018-04-09T05:57:22.514Z,33.85
2018-04-09T05:57:56.640Z,42.33
2018-04-09T05:58:30.492Z,41.28
2018-04-09T05:59:04.365Z,36.25
2018-04-09T05:59:38.234Z,43.22
2018-04-09T06:00:12.131Z,39.17
2018-04-09T06:00:45.996Z,36.92
2018-04-09T06:01:19.997Z,38.40
2018-04-09T06:01:53.920Z,36.83
2018-04-09T06:02:27.785Z,35.13
2018-04-09T06:03:01.662Z,41.35
2018-04-09T06:03:35.579Z,39.70
2018-04-09T06:04:09.469Z,39.33
2018-04-09T06:04:43.381Z,39.20
2018-04-09T06:05:17.406Z,39.28
2018-04-09T06:05:51.310Z,37.92
2018-04-09T06:06:25.166Z,42.03
2018-04-09T06:06:59.034Z,43.80
2018-04-09T06:07:32.913Z,37.80
2018-04-09T06:08:06.812Z,35.63
2018-04-09T06:08:40.833Z,35.67
2018-04-09T06:09:14.703Z,38.45
2018-04-09T06:09:48.597Z,38.47
2018-04-09T06:10:22.460Z,37.55
2018-04-09T06:10:56.337Z,37.95
2018-04-09T06:11:30.321Z,34.75
2018-04-09T06:12:04.177Z,37.15
2018-04-09T06:12:38.034Z,39.00
2018-04-09T06:13:11.981Z,38.03
2018-04-09T06:13:45.852Z,40.65
2018-04-09T06:14:19.759Z,40.10
2018-04-09T06:14:53.736Z,45.05
2018-04-09T06:15:27.769Z,39.30
2018-04-09T06:16:01.676Z,38.33
2018-04-09T06:16:35.562Z,46.00
2018-04-09T06:17:09.422Z,40.08
2018-04-09T06:17:43.292Z,38.03
2018-04-09T06:18:17.198Z,39.97
2018-04-09T06:18:51.125Z,33.88
2018-04-09T06:19:25.033Z,37.03
2018-04-09T06:19:59.028Z,36.53
2018-04-09T06:20:32.922Z,35.85
2018-04-09T06:21:06.783Z,36.67
2018-04-09T06:21:40.670Z,38.78
2018-04-09T06:22:14.594Z,37.10
2018-04-09T06:22:48.466Z,36.08
2018-04-09T06:23:22.599Z,38.10
2018-04-09T06:23:56.463Z,35.90
2018-04-09T06:24:30.614Z,37.60
2018-04-09T06:25:04.488Z,41.17
2018-04-09T06:25:38.356Z,35.80
2018-04-09T06:26:12.222Z,35.80
2018-04-09T06:26:46.216Z,29.15
2018-04-09T06:27:20.149Z,33.35
2018-04-09T06:27:54.028Z,32.72
2018-04-09T06:28:27.889Z,34.15
2018-04-09T06:29:01.777Z,33.97
2018-04-09T06:29:35.645Z,35.10
2018-04-09T06:30:09.520Z,35.80
2018-04-09T06:30:43.435Z,35.35
2018-04-09T06:31:17.289Z,37.47
2018-04-09T06:31:51.180Z,38.92
2018-04-09T06:32:25.239Z,35.58
2018-04-09T06:32:59.135Z,34.25
2018-04-09T06:33:32.992Z,34.80
2018-04-09T06:34:07.035Z,42.05
2018-04-09T06:34:40.906Z,36.42
2018-04-09T06:35:14.793Z,37.80
2018-04-09T06:35:48.684Z,34.45
2018-04-09T06:36:22.570Z,34.28
2018-04-09T06:36:56.440Z,30.88
2018-04-09T06:37:30.313Z,41.90
2018-04-09T06:38:04.178Z,36.10
2018-04-09T06:38:38.047Z,39.45
2018-04-09T06:39:11.925Z,35.78
2018-04-09T06:39:45.881Z,38.88
2018-04-09T06:40:19.755Z,34.38
2018-04-09T06:40:53.623Z,37.50
2018-04-09T06:41:27.503Z,35.40
2018-04-09T06:42:01.460Z,41.40
2018-04-09T06:42:35.441Z,34.97
2018-04-09T06:43:09.289Z,39.30
2018-04-09T06:43:43.335Z,38.80
2018-04-09T06:44:17.199Z,35.60
2018-04-09T06:44:51.094Z,33.45
2018-04-09T06:46:05.422Z,35.67
2018-04-09T06:46:39.305Z,33.85
2018-04-09T06:47:13.216Z,37.47
2018-04-09T06:47:47.294Z,37.00
2018-04-09T06:48:21.428Z,35.15
2018-04-09T06:48:55.345Z,35.83
2018-04-09T06:49:29.236Z,34.17
2018-04-09T06:50:03.459Z,38.05
2018-04-09T06:50:37.466Z,40.80
2018-04-09T06:51:11.353Z,41.42
2018-04-09T06:51:45.238Z,42.03
2018-04-09T06:52:19.172Z,40.78
2018-04-09T06:52:53.038Z,50.33
2018-04-09T06:53:26.961Z,44.67
2018-04-09T06:54:00.832Z,39.00
2018-04-09T06:54:34.733Z,39.05
2018-04-09T06:55:09.490Z,39.22
2018-04-09T06:55:43.368Z,37.58
2018-04-09T06:56:17.345Z,37.17
2018-04-09T06:56:51.222Z,35.53
2018-04-09T06:57:25.135Z,37.33
2018-04-09T06:57:58.995Z,36.28
2018-04-09T06:58:32.896Z,35.97
2018-04-09T06:59:06.763Z,43.05
2018-04-09T06:59:40.637Z,41.63
2018-04-09T07:00:14.834Z,36.25
2018-04-09T07:00:48.902Z,40.78
2018-04-09T07:01:23.115Z,37.97
2018-04-09T07:01:57.088Z,38.95
2018-04-09T07:02:30.994Z,39.05
2018-04-09T07:03:04.858Z,40.42
2018-04-09T07:03:38.721Z,37.33
2018-04-09T07:04:12.623Z,38.38
2018-04-09T07:04:46.507Z,39.55
2018-04-09T07:05:20.387Z,42.25
2018-04-09T07:05:54.256Z,44.05
2018-04-09T07:06:28.160Z,46.50
2018-04-09T07:07:02.033Z,37.72
2018-04-09T07:07:35.936Z,41.03
2018-04-09T07:08:09.794Z,44.53
2018-04-09T07:08:43.669Z,41.85
2018-04-09T07:09:17.576Z,43.13
2018-04-09T07:09:51.437Z,42.15
2018-04-09T07:10:25.326Z,45.45
2018-04-09T07:10:59.219Z,41.97
2018-04-09T07:11:33.110Z,40.95
2018-04-09T07:12:06.981Z,46.58
2018-04-09T07:12:40.890Z,49.00
2018-04-09T07:13:14.781Z,42.97
2018-04-09T07:13:48.875Z,39.67
2018-04-09T07:14:22.861Z,43.87
2018-04-09T07:14:56.728Z,37.33
2018-04-09T07:15:30.650Z,42.53
2018-04-09T07:16:04.514Z,40.83
2018-04-09T07:16:38.423Z,40.45
2018-04-09T07:17:12.584Z,43.55
2018-04-09T07:17:46.457Z,40.22
2018-04-09T07:18:20.326Z,43.78
2018-04-09T07:18:54.281Z,42.03
2018-04-09T07:19:28.202Z,42.60
2018-04-09T07:20:02.090Z,39.75
2018-04-09T07:20:36.024Z,40.72
2018-04-09T07:21:09.887Z,38.70
2018-04-09T07:21:43.770Z,44.72
2018-04-09T07:22:17.668Z,44.97
2018-04-09T07:22:51.593Z,43.53
2018-04-09T07:23:25.466Z,43.08
2018-04-09T07:23:59.545Z,46.42
2018-04-09T07:24:33.416Z,38.40
2018-04-09T07:25:07.337Z,43.65
2018-04-09T07:25:41.626Z,39.78
2018-04-09T07:26:15.631Z,35.33
2018-04-09T07:26:49.520Z,34.67